Sarah Golding — WDH4635 — position and weather

sailwx.info

Track history (hours):
 
Tides and Currents Weather Stations Pressure Air Temp Water Temp Dewpoint Dewpoint Depression Visibility Wind Speed Wind Dir Waves Ship Positions

Sarah Golding

Owner: GOLDING BARGE LINE, INC, VICKSBURG, MS. More information available from US FCC via Universal Licensing System and Coast Guard Vessel Documentation Center.

Last reported at 2017-Dec-09 21:58 UTC. Time now 2017-Dec-14 13:00 UTC.
Position N 29°34' W 090°31'.

Length 114 m; draft 2.9 m.

Type: . MMSI: 367619730.

Date/timePositionNaut miles runAvg speedWind from/ knotsBaromVisibWave heightAir tempDewpointWater temp
2017-Dec-09 21:58N 29°34' W 090°31'3 5.8
2017-Dec-09 21:29N 29°34' W 090°34'3 5.6
2017-Dec-09 21:00N 29°35' W 090°37'3 5.2
2017-Dec-09 20:30N 29°36' W 090°40'3 5.3
2017-Dec-09 20:00N 29°37' W 090°42'3 5.5
2017-Dec-09 19:30N 29°34' W 090°43'1 2.4
2017-Dec-09 19:00N 29°34' W 090°45'1 1.5
2017-Dec-09 18:30N 29°33' W 090°45'0 0.4
2017-Dec-09 18:00N 29°33' W 090°45'3 5.3
2017-Dec-09 17:30N 29°32' W 090°48'4 6.2
2017-Dec-09 16:55N 29°32' W 090°52'3 6.8
2017-Dec-09 16:27N 29°34' W 090°56'54 4.2
2017-Dec-09 03:33N 29°51' W 091°54'0 5.5
2017-Dec-09 03:30N 29°51' W 091°55'3 5.6
2017-Dec-09 03:00N 29°50' W 091°58'3 5.8
2017-Dec-09 02:30N 29°49' W 092°01'3 5.9
2017-Dec-09 02:00N 29°48' W 092°04'3 6.2
2017-Dec-09 01:30N 29°47' W 092°08'3 5.5
2017-Dec-09 01:00N 29°47' W 092°11'3 5.1
2017-Dec-09 00:30N 29°48' W 092°13'1 1.9
2017-Dec-09 00:00N 29°48' W 092°14'0 0.0
2017-Dec-08 23:30N 29°48' W 092°14'0 0.2
2017-Dec-08 23:00N 29°48' W 092°14'2 4.9
2017-Dec-08 22:30N 29°49' W 092°17'2 4.4
2017-Dec-08 22:00N 29°50' W 092°19'3 5.1
2017-Dec-08 21:20N 29°52' W 092°22'41 4.6
2017-Dec-08 12:30N 29°56' W 093°09'0 0.0
2017-Dec-08 10:38N 29°56' W 093°09'0 0.0
2017-Dec-08 10:30N 29°56' W 093°09'0 0.0
2017-Dec-08 10:00N 29°56' W 093°09'0 0.0
2017-Dec-08 09:30N 29°56' W 093°09'0 0.0
2017-Dec-08 09:00N 29°56' W 093°09'0 0.0
2017-Dec-08 08:30N 29°56' W 093°09'0 0.0
2017-Dec-08 08:00N 29°56' W 093°09'0 0.0
2017-Dec-08 07:30N 29°56' W 093°09'0 0.0
2017-Dec-08 07:00N 29°56' W 093°09'0 0.0
2017-Dec-08 06:30N 29°56' W 093°09'0 0.9
2017-Dec-08 06:00N 29°56' W 093°09'3 5.1
2017-Dec-08 05:30N 29°58' W 093°11'2 4.4
2017-Dec-08 05:00N 29°60' W 093°13'3 5.0
2017-Dec-08 04:30N 30°02' W 093°15'2 4.0
2017-Dec-08 04:00N 30°03' W 093°16'3 5.2
2017-Dec-08 03:30N 30°05' W 093°18'1 1.4
2017-Dec-08 03:00N 30°06' W 093°18'0 0.0
2017-Dec-08 02:30N 30°06' W 093°18'0 0.0
2017-Dec-08 02:00N 30°06' W 093°18'0 0.0
2017-Dec-08 01:30N 30°06' W 093°18'0 0.0
2017-Dec-08 01:00N 30°06' W 093°18'0 0.0
2017-Dec-08 00:30N 30°06' W 093°18'0 0.0
2017-Dec-08 00:00N 30°06' W 093°18'0 0.0
2017-Dec-07 23:30N 30°06' W 093°18'0 0.0
2017-Dec-07 23:00N 30°06' W 093°18'0 0.0
2017-Dec-07 22:30N 30°06' W 093°18'0 0.0
2017-Dec-07 22:00N 30°06' W 093°18'0 0.0
2017-Dec-07 21:30N 30°06' W 093°18'0 0.0
2017-Dec-07 21:00N 30°06' W 093°18'0 0.0
2017-Dec-07 20:30N 30°06' W 093°18'0 0.0
2017-Dec-07 20:00N 30°06' W 093°18'0 0.0
2017-Dec-07 19:30N 30°06' W 093°18'0 0.0
2017-Dec-07 19:00N 30°06' W 093°18'0 0.5
2017-Dec-07 18:30N 30°06' W 093°18'2 3.3
2017-Dec-07 18:00N 30°07' W 093°20'3 5.7
2017-Dec-07 17:30N 30°10' W 093°19'3 5.9
2017-Dec-07 17:00N 30°12' W 093°17'1 2.8
2017-Dec-07 16:30N 30°13' W 093°16'0 0.7
2017-Dec-07 16:00N 30°13' W 093°16'0 0.1
2017-Dec-07 15:30N 30°13' W 093°16'0 0.1
2017-Dec-07 15:00N 30°13' W 093°16'0 0.0
2017-Dec-07 14:30N 30°13' W 093°16'0 0.5
2017-Dec-07 14:00N 30°13' W 093°16'2 4.0
2017-Dec-07 13:30N 30°12' W 093°18'3 5.2
2017-Dec-07 13:00N 30°10' W 093°19'0 0.0
2017-Dec-07 12:30N 30°10' W 093°19'0 0.0
2017-Dec-07 12:00N 30°10' W 093°19'0 0.0
2017-Dec-07 11:30N 30°10' W 093°19'0 0.0
2017-Dec-07 11:00N 30°10' W 093°19'0 0.0
2017-Dec-07 10:30N 30°10' W 093°19'0 0.0
2017-Dec-07 10:00N 30°10' W 093°19'0 0.0
2017-Dec-07 09:30N 30°10' W 093°19'0 0.0
2017-Dec-07 09:00N 30°10' W 093°19'0 0.0
2017-Dec-07 08:30N 30°10' W 093°19'0 0.0
2017-Dec-07 08:00N 30°10' W 093°19'0 0.0
2017-Dec-07 07:30N 30°10' W 093°19'0 0.0
2017-Dec-07 07:00N 30°10' W 093°19'0 0.0
2017-Dec-07 06:30N 30°10' W 093°19'0 0.0
2017-Dec-07 06:00N 30°10' W 093°19'0 0.0
2017-Dec-07 05:30N 30°10' W 093°19'0 0.0
2017-Dec-07 05:00N 30°10' W 093°19'0 0.0
2017-Dec-07 04:30N 30°10' W 093°19'0 0.0
2017-Dec-07 04:00N 30°10' W 093°19'0 0.0
2017-Dec-07 03:30N 30°10' W 093°19'0 0.0
2017-Dec-07 03:00N 30°10' W 093°19'0 0.0
2017-Dec-07 02:30N 30°10' W 093°19'0 0.0
2017-Dec-07 02:00N 30°10' W 093°19'0 0.0
2017-Dec-06 23:11N 30°10' W 093°19'0 0.0
2017-Dec-06 23:00N 30°10' W 093°19'0 0.0
2017-Dec-06 22:30N 30°10' W 093°19'0 0.0
2017-Dec-06 22:00N 30°10' W 093°19'0 0.0
2017-Dec-06 21:30N 30°10' W 093°19'0 0.0
2017-Dec-06 21:00N 30°10' W 093°19'  
2017-Dec-04 10:30N 29°43' W 095°14'0 0.0
2017-Dec-04 10:00N 29°43' W 095°14'0 0.0
2017-Dec-04 09:30N 29°43' W 095°14'0 0.0
2017-Dec-04 09:00N 29°43' W 095°14'0 0.0
2017-Dec-04 08:30N 29°43' W 095°14'0 0.0
2017-Dec-04 08:00N 29°43' W 095°14'0 0.0
2017-Dec-04 07:30N 29°43' W 095°14'0 0.0
2017-Dec-04 07:00N 29°43' W 095°14'0 0.0
2017-Dec-04 06:30N 29°43' W 095°14'0 0.0
2017-Dec-04 06:00N 29°43' W 095°14'0 0.0
2017-Dec-04 05:30N 29°43' W 095°14'0 0.0
2017-Dec-04 05:00N 29°43' W 095°14'0 0.0
2017-Dec-04 04:30N 29°43' W 095°14'0 0.0
2017-Dec-04 03:59N 29°43' W 095°14'0 0.0
2017-Dec-04 03:30N 29°43' W 095°14'0 0.0
2017-Dec-04 03:00N 29°43' W 095°14'0 0.0
2017-Dec-04 02:30N 29°43' W 095°14'0 0.0
2017-Dec-04 02:00N 29°43' W 095°14'0 0.0
2017-Dec-04 01:30N 29°43' W 095°14'0 0.0
2017-Dec-04 01:00N 29°43' W 095°14'0 0.0
2017-Dec-04 00:26N 29°43' W 095°14'0 0.0
2017-Dec-04 00:00N 29°43' W 095°14'0 0.0
2017-Dec-03 23:30N 29°43' W 095°14'0 0.0
2017-Dec-03 22:59N 29°43' W 095°14'0 0.0
2017-Dec-03 22:29N 29°43' W 095°14'0 0.0
2017-Dec-03 21:54N 29°43' W 095°14'0 0.0
2017-Dec-03 21:28N 29°43' W 095°14'0 0.2
2017-Dec-03 21:00N 29°43' W 095°14'0 0.1
2017-Dec-03 20:30N 29°43' W 095°14'0 0.0
2017-Dec-03 20:00N 29°43' W 095°14'0 0.0
2017-Dec-03 19:30N 29°43' W 095°14'0 0.0
2017-Dec-03 19:00N 29°43' W 095°14'0 0.0
2017-Dec-03 18:30N 29°43' W 095°14'0 0.0
2017-Dec-03 18:00N 29°43' W 095°14'0 0.0
2017-Dec-03 17:30N 29°43' W 095°14'0 0.0
2017-Dec-03 17:00N 29°43' W 095°14'0 0.0
2017-Dec-03 16:30N 29°43' W 095°14'0 0.0
2017-Dec-03 16:00N 29°43' W 095°14'0 0.0
2017-Dec-03 15:30N 29°43' W 095°14'0 0.0
2017-Dec-03 15:00N 29°43' W 095°14'0 0.0
2017-Dec-03 14:30N 29°43' W 095°14'0 0.0
2017-Dec-03 13:56N 29°43' W 095°14'0 0.0
2017-Dec-03 13:30N 29°43' W 095°14'0 0.0
2017-Dec-03 12:59N 29°43' W 095°14'0 0.0
2017-Dec-03 12:30N 29°43' W 095°14'0 0.0
2017-Dec-03 12:00N 29°43' W 095°14'0 0.0
2017-Dec-03 11:30N 29°43' W 095°14'0 0.0
2017-Dec-03 10:58N 29°43' W 095°14'0 0.0
2017-Dec-03 10:30N 29°43' W 095°14'0 0.0
2017-Dec-03 09:59N 29°43' W 095°14'0 0.0
2017-Dec-03 09:30N 29°43' W 095°14'0 0.0
2017-Dec-03 08:59N 29°43' W 095°14'0 0.0
2017-Dec-03 08:29N 29°43' W 095°14'0 0.0
2017-Dec-03 07:59N 29°43' W 095°14'0 0.0
2017-Dec-03 07:27N 29°43' W 095°14'0 0.0
2017-Dec-03 07:00N 29°43' W 095°14'0 0.0
2017-Dec-03 06:30N 29°43' W 095°14'0 0.0
2017-Dec-03 06:00N 29°43' W 095°14'0 0.0
2017-Dec-03 05:30N 29°43' W 095°14'0 0.0
2017-Dec-03 05:00N 29°43' W 095°14'0 0.0
2017-Dec-03 04:30N 29°43' W 095°14'0 0.0
2017-Dec-03 04:00N 29°43' W 095°14'0 0.1
2017-Dec-03 03:29N 29°43' W 095°14'0 0.2
2017-Dec-03 03:00N 29°43' W 095°14'2 4.0
2017-Dec-03 02:29N 29°44' W 095°12'3 5.9
2017-Dec-03 02:00N 29°44' W 095°09'4 7.6
2017-Dec-03 01:28N 29°46' W 095°05'4 7.7
2017-Dec-03 00:55N 29°43' W 095°01'4 8.7
2017-Dec-03 00:30N 29°40' W 094°59'4 8.8
2017-Dec-03 00:00N 29°36' W 094°57'510.0
2017-Dec-02 23:30N 29°32' W 094°54'11 6.8
2017-Dec-02 21:55N 29°24' W 094°45'63 3.1
2017-Dec-02 01:39N 30°01' W 093°46'1 5.0
2017-Dec-02 01:21N 30°01' W 093°44'2 4.9
2017-Dec-02 01:00N 30°03' W 093°43'3 5.5
2017-Dec-02 00:30N 30°04' W 093°40'2 4.7
2017-Dec-02 00:00N 30°04' W 093°38'2 4.7
2017-Dec-01 23:30N 30°04' W 093°35'2 4.6
2017-Dec-01 23:00N 30°04' W 093°32'2 4.7
2017-Dec-01 22:30N 30°04' W 093°30'2 4.3
2017-Dec-01 22:00N 30°04' W 093°27'2 4.8
2017-Dec-01 21:30N 30°04' W 093°24'1 2.8
2017-Dec-01 21:00N 30°04' W 093°23'2 4.1
2017-Dec-01 20:30N 30°04' W 093°21'2 3.8
2017-Dec-01 20:00N 30°06' W 093°20'3 5.3
2017-Dec-01 19:30N 30°09' W 093°20'3 5.1
2017-Dec-01 19:00N 30°11' W 093°19'3 6.3
2017-Dec-01 18:30N 30°13' W 093°16'1 1.5
2017-Dec-01 18:00N 30°13' W 093°16'0 0.0
2017-Dec-01 17:30N 30°13' W 093°16'0 0.0
2017-Dec-01 17:00N 30°13' W 093°16'0 0.0
2017-Dec-01 16:30N 30°13' W 093°16'0 0.0
2017-Dec-01 16:00N 30°13' W 093°16'0 0.0
2017-Dec-01 15:30N 30°13' W 093°16'0 0.0
2017-Dec-01 15:00N 30°13' W 093°16'0 0.0
2017-Dec-01 14:30N 30°13' W 093°16'0 0.0
2017-Dec-01 14:00N 30°13' W 093°16'0 0.0
2017-Dec-01 13:30N 30°13' W 093°16'0 0.0
2017-Dec-01 13:00N 30°13' W 093°16'0 0.0
2017-Dec-01 12:30N 30°13' W 093°16'0 0.0
2017-Dec-01 12:00N 30°13' W 093°16'0 0.0
2017-Dec-01 11:30N 30°13' W 093°16'0 0.0
2017-Dec-01 11:00N 30°13' W 093°16'0 0.0
2017-Dec-01 10:30N 30°13' W 093°16'0 0.0
2017-Dec-01 10:00N 30°13' W 093°16'0 0.0
2017-Dec-01 09:30N 30°13' W 093°16'0 0.0
2017-Dec-01 09:00N 30°13' W 093°16'0 0.0
2017-Dec-01 08:30N 30°13' W 093°16'0 0.0
2017-Dec-01 08:00N 30°13' W 093°16'0 0.0
2017-Dec-01 07:30N 30°13' W 093°16'0 0.0
2017-Dec-01 07:00N 30°13' W 093°16'0 0.0
2017-Dec-01 06:30N 30°13' W 093°16'0 0.0
2017-Dec-01 06:00N 30°13' W 093°16'0 0.0
2017-Dec-01 05:30N 30°13' W 093°16'0 0.0
2017-Dec-01 05:00N 30°13' W 093°16'0 0.0
2017-Dec-01 04:30N 30°13' W 093°16'0 0.0
2017-Dec-01 04:00N 30°13' W 093°16'0 0.0
2017-Dec-01 03:30N 30°13' W 093°16'0 0.0
2017-Dec-01 03:00N 30°13' W 093°16'0 0.0
2017-Dec-01 02:30N 30°13' W 093°16'0 0.0
2017-Dec-01 02:00N 30°13' W 093°16'0 0.0
2017-Dec-01 01:30N 30°13' W 093°16'0 0.0
2017-Dec-01 01:00N 30°13' W 093°16'0 0.0
2017-Dec-01 00:30N 30°13' W 093°16'0 0.0
2017-Dec-01 00:00N 30°13' W 093°16'0 0.0
2017-Nov-30 23:30N 30°13' W 093°16'0 0.0
2017-Nov-30 23:00N 30°13' W 093°16'0 0.0
2017-Nov-30 22:30N 30°13' W 093°16'0 0.0
2017-Nov-30 22:00N 30°13' W 093°16'0 0.0
2017-Nov-30 21:30N 30°13' W 093°16'0 0.0
2017-Nov-30 21:00N 30°13' W 093°16'0 0.0
2017-Nov-30 20:30N 30°13' W 093°16'0 0.0
2017-Nov-30 20:00N 30°13' W 093°16'0 0.0
2017-Nov-30 19:30N 30°13' W 093°16'0 0.0
2017-Nov-30 19:00N 30°13' W 093°16'0 0.0
2017-Nov-30 18:30N 30°13' W 093°16'0 0.0
2017-Nov-30 18:00N 30°13' W 093°16'0 0.0
2017-Nov-30 17:30N 30°13' W 093°16'0 0.0
2017-Nov-30 17:00N 30°13' W 093°16'0 0.0
2017-Nov-30 16:30N 30°13' W 093°16'0 0.0
2017-Nov-30 16:00N 30°13' W 093°16'0 0.0
2017-Nov-30 15:30N 30°13' W 093°16'0 0.0
2017-Nov-30 15:00N 30°13' W 093°16'0 0.0
2017-Nov-30 14:30N 30°13' W 093°16'0 0.0
2017-Nov-30 14:00N 30°13' W 093°16'0 0.0
2017-Nov-30 13:30N 30°13' W 093°16'0 0.0
2017-Nov-30 13:00N 30°13' W 093°16'0 0.0
2017-Nov-30 12:30N 30°13' W 093°16'0 0.0
2017-Nov-30 12:00N 30°13' W 093°16'0 0.0
2017-Nov-30 11:30N 30°13' W 093°16'0 0.0
2017-Nov-30 11:00N 30°13' W 093°16'0 0.0
2017-Nov-30 10:30N 30°13' W 093°16'0 0.0
2017-Nov-30 10:00N 30°13' W 093°16'0 0.0
2017-Nov-30 09:30N 30°13' W 093°16'0 0.0
2017-Nov-30 09:00N 30°13' W 093°16'0 0.0
2017-Nov-30 08:30N 30°13' W 093°16'0 0.0
2017-Nov-30 08:00N 30°13' W 093°16'0 0.0
2017-Nov-30 07:30N 30°13' W 093°16'0 0.0
2017-Nov-30 07:00N 30°13' W 093°16'0 0.0
2017-Nov-30 06:30N 30°13' W 093°16'0 0.0
2017-Nov-30 06:00N 30°13' W 093°16'0 0.0
2017-Nov-30 05:30N 30°13' W 093°16'0 0.0
2017-Nov-30 05:00N 30°13' W 093°16'0 0.0
2017-Nov-30 04:30N 30°13' W 093°16'0 0.0
2017-Nov-30 04:00N 30°13' W 093°16'0 0.0
2017-Nov-30 03:30N 30°13' W 093°16'0 0.0
2017-Nov-30 03:00N 30°13' W 093°16'0 0.0
2017-Nov-30 02:30N 30°13' W 093°16'0 0.0
2017-Nov-30 02:00N 30°13' W 093°16'0 0.0
2017-Nov-30 01:30N 30°13' W 093°16'0 0.0
2017-Nov-30 01:00N 30°13' W 093°16'0 0.0
2017-Nov-30 00:30N 30°13' W 093°16'0 0.0
2017-Nov-30 00:00N 30°13' W 093°16'0 0.0
2017-Nov-29 23:30N 30°13' W 093°16'0 0.0
2017-Nov-29 23:00N 30°13' W 093°16'0 0.0
2017-Nov-29 22:30N 30°13' W 093°16'0 0.0
2017-Nov-29 22:00N 30°13' W 093°16'  
Track history (hours):
 
Tides and Currents Weather Stations Pressure Air Temp Water Temp Dewpoint Dewpoint Depression Visibility Wind Speed Wind Dir Waves Ship Positions

Sarah Golding

Owner: GOLDING BARGE LINE, INC, VICKSBURG, MS. More information available from US FCC via Universal Licensing System and Coast Guard Vessel Documentation Center.

Last reported at 2017-Dec-09 21:58 UTC. Time now 2017-Dec-14 13:00 UTC.
Position N 29°34' W 090°31'.

Length 114 m; draft 2.9 m.

Type: . MMSI: 367619730.

Date/timePositionNaut miles runAvg speedWind from/ knotsBaromVisibWave heightAir tempDewpointWater temp
2017-Dec-09 21:58N 29°34' W 090°31'3 5.8
2017-Dec-09 21:29N 29°34' W 090°34'3 5.6
2017-Dec-09 21:00N 29°35' W 090°37'3 5.2
2017-Dec-09 20:30N 29°36' W 090°40'3 5.3
2017-Dec-09 20:00N 29°37' W 090°42'3 5.5
2017-Dec-09 19:30N 29°34' W 090°43'1 2.4
2017-Dec-09 19:00N 29°34' W 090°45'1 1.5
2017-Dec-09 18:30N 29°33' W 090°45'0 0.4
2017-Dec-09 18:00N 29°33' W 090°45'3 5.3
2017-Dec-09 17:30N 29°32' W 090°48'4 6.2
2017-Dec-09 16:55N 29°32' W 090°52'3 6.8
2017-Dec-09 16:27N 29°34' W 090°56'54 4.2
2017-Dec-09 03:33N 29°51' W 091°54'0 5.5
2017-Dec-09 03:30N 29°51' W 091°55'3 5.6
2017-Dec-09 03:00N 29°50' W 091°58'3 5.8
2017-Dec-09 02:30N 29°49' W 092°01'3 5.9
2017-Dec-09 02:00N 29°48' W 092°04'3 6.2
2017-Dec-09 01:30N 29°47' W 092°08'3 5.5
2017-Dec-09 01:00N 29°47' W 092°11'3 5.1
2017-Dec-09 00:30N 29°48' W 092°13'1 1.9
2017-Dec-09 00:00N 29°48' W 092°14'0 0.0
2017-Dec-08 23:30N 29°48' W 092°14'0 0.2
2017-Dec-08 23:00N 29°48' W 092°14'2 4.9
2017-Dec-08 22:30N 29°49' W 092°17'2 4.4
2017-Dec-08 22:00N 29°50' W 092°19'3 5.1
2017-Dec-08 21:20N 29°52' W 092°22'41 4.6
2017-Dec-08 12:30N 29°56' W 093°09'0 0.0
2017-Dec-08 10:38N 29°56' W 093°09'0 0.0
2017-Dec-08 10:30N 29°56' W 093°09'0 0.0
2017-Dec-08 10:00N 29°56' W 093°09'0 0.0
2017-Dec-08 09:30N 29°56' W 093°09'0 0.0
2017-Dec-08 09:00N 29°56' W 093°09'0 0.0
2017-Dec-08 08:30N 29°56' W 093°09'0 0.0
2017-Dec-08 08:00N 29°56' W 093°09'0 0.0
2017-Dec-08 07:30N 29°56' W 093°09'0 0.0
2017-Dec-08 07:00N 29°56' W 093°09'0 0.0
2017-Dec-08 06:30N 29°56' W 093°09'0 0.9
2017-Dec-08 06:00N 29°56' W 093°09'3 5.1
2017-Dec-08 05:30N 29°58' W 093°11'2 4.4
2017-Dec-08 05:00N 29°60' W 093°13'3 5.0
2017-Dec-08 04:30N 30°02' W 093°15'2 4.0
2017-Dec-08 04:00N 30°03' W 093°16'3 5.2
2017-Dec-08 03:30N 30°05' W 093°18'1 1.4
2017-Dec-08 03:00N 30°06' W 093°18'0 0.0
2017-Dec-08 02:30N 30°06' W 093°18'0 0.0
2017-Dec-08 02:00N 30°06' W 093°18'0 0.0
2017-Dec-08 01:30N 30°06' W 093°18'0 0.0
2017-Dec-08 01:00N 30°06' W 093°18'0 0.0
2017-Dec-08 00:30N 30°06' W 093°18'0 0.0
2017-Dec-08 00:00N 30°06' W 093°18'0 0.0
2017-Dec-07 23:30N 30°06' W 093°18'0 0.0
2017-Dec-07 23:00N 30°06' W 093°18'0 0.0
2017-Dec-07 22:30N 30°06' W 093°18'0 0.0
2017-Dec-07 22:00N 30°06' W 093°18'0 0.0
2017-Dec-07 21:30N 30°06' W 093°18'0 0.0
2017-Dec-07 21:00N 30°06' W 093°18'0 0.0
2017-Dec-07 20:30N 30°06' W 093°18'0 0.0
2017-Dec-07 20:00N 30°06' W 093°18'0 0.0
2017-Dec-07 19:30N 30°06' W 093°18'0 0.0
2017-Dec-07 19:00N 30°06' W 093°18'0 0.5
2017-Dec-07 18:30N 30°06' W 093°18'2 3.3
2017-Dec-07 18:00N 30°07' W 093°20'3 5.7
2017-Dec-07 17:30N 30°10' W 093°19'3 5.9
2017-Dec-07 17:00N 30°12' W 093°17'1 2.8
2017-Dec-07 16:30N 30°13' W 093°16'0 0.7
2017-Dec-07 16:00N 30°13' W 093°16'0 0.1
2017-Dec-07 15:30N 30°13' W 093°16'0 0.1
2017-Dec-07 15:00N 30°13' W 093°16'0 0.0
2017-Dec-07 14:30N 30°13' W 093°16'0 0.5
2017-Dec-07 14:00N 30°13' W 093°16'2 4.0
2017-Dec-07 13:30N 30°12' W 093°18'3 5.2
2017-Dec-07 13:00N 30°10' W 093°19'0 0.0
2017-Dec-07 12:30N 30°10' W 093°19'0 0.0
2017-Dec-07 12:00N 30°10' W 093°19'0 0.0
2017-Dec-07 11:30N 30°10' W 093°19'0 0.0
2017-Dec-07 11:00N 30°10' W 093°19'0 0.0
2017-Dec-07 10:30N 30°10' W 093°19'0 0.0
2017-Dec-07 10:00N 30°10' W 093°19'0 0.0
2017-Dec-07 09:30N 30°10' W 093°19'0 0.0
2017-Dec-07 09:00N 30°10' W 093°19'0 0.0
2017-Dec-07 08:30N 30°10' W 093°19'0 0.0
2017-Dec-07 08:00N 30°10' W 093°19'0 0.0
2017-Dec-07 07:30N 30°10' W 093°19'0 0.0
2017-Dec-07 07:00N 30°10' W 093°19'0 0.0
2017-Dec-07 06:30N 30°10' W 093°19'0 0.0
2017-Dec-07 06:00N 30°10' W 093°19'0 0.0
2017-Dec-07 05:30N 30°10' W 093°19'0 0.0
2017-Dec-07 05:00N 30°10' W 093°19'0 0.0
2017-Dec-07 04:30N 30°10' W 093°19'0 0.0
2017-Dec-07 04:00N 30°10' W 093°19'0 0.0
2017-Dec-07 03:30N 30°10' W 093°19'0 0.0
2017-Dec-07 03:00N 30°10' W 093°19'0 0.0
2017-Dec-07 02:30N 30°10' W 093°19'0 0.0
2017-Dec-07 02:00N 30°10' W 093°19'0 0.0
2017-Dec-06 23:11N 30°10' W 093°19'0 0.0
2017-Dec-06 23:00N 30°10' W 093°19'0 0.0
2017-Dec-06 22:30N 30°10' W 093°19'0 0.0
2017-Dec-06 22:00N 30°10' W 093°19'0 0.0
2017-Dec-06 21:30N 30°10' W 093°19'0 0.0
2017-Dec-06 21:00N 30°10' W 093°19'  
2017-Dec-04 10:30N 29°43' W 095°14'0 0.0
2017-Dec-04 10:00N 29°43' W 095°14'0 0.0
2017-Dec-04 09:30N 29°43' W 095°14'0 0.0
2017-Dec-04 09:00N 29°43' W 095°14'0 0.0
2017-Dec-04 08:30N 29°43' W 095°14'0 0.0
2017-Dec-04 08:00N 29°43' W 095°14'0 0.0
2017-Dec-04 07:30N 29°43' W 095°14'0 0.0
2017-Dec-04 07:00N 29°43' W 095°14'0 0.0
2017-Dec-04 06:30N 29°43' W 095°14'0 0.0
2017-Dec-04 06:00N 29°43' W 095°14'0 0.0
2017-Dec-04 05:30N 29°43' W 095°14'0 0.0
2017-Dec-04 05:00N 29°43' W 095°14'0 0.0
2017-Dec-04 04:30N 29°43' W 095°14'0 0.0
2017-Dec-04 03:59N 29°43' W 095°14'0 0.0
2017-Dec-04 03:30N 29°43' W 095°14'0 0.0
2017-Dec-04 03:00N 29°43' W 095°14'0 0.0
2017-Dec-04 02:30N 29°43' W 095°14'0 0.0
2017-Dec-04 02:00N 29°43' W 095°14'0 0.0
2017-Dec-04 01:30N 29°43' W 095°14'0 0.0
2017-Dec-04 01:00N 29°43' W 095°14'0 0.0
2017-Dec-04 00:26N 29°43' W 095°14'0 0.0
2017-Dec-04 00:00N 29°43' W 095°14'0 0.0
2017-Dec-03 23:30N 29°43' W 095°14'0 0.0
2017-Dec-03 22:59N 29°43' W 095°14'0 0.0
2017-Dec-03 22:29N 29°43' W 095°14'0 0.0
2017-Dec-03 21:54N 29°43' W 095°14'0 0.0
2017-Dec-03 21:28N 29°43' W 095°14'0 0.2
2017-Dec-03 21:00N 29°43' W 095°14'0 0.1
2017-Dec-03 20:30N 29°43' W 095°14'0 0.0
2017-Dec-03 20:00N 29°43' W 095°14'0 0.0
2017-Dec-03 19:30N 29°43' W 095°14'0 0.0
2017-Dec-03 19:00N 29°43' W 095°14'0 0.0
2017-Dec-03 18:30N 29°43' W 095°14'0 0.0
2017-Dec-03 18:00N 29°43' W 095°14'0 0.0
2017-Dec-03 17:30N 29°43' W 095°14'0 0.0
2017-Dec-03 17:00N 29°43' W 095°14'0 0.0
2017-Dec-03 16:30N 29°43' W 095°14'0 0.0
2017-Dec-03 16:00N 29°43' W 095°14'0 0.0
2017-Dec-03 15:30N 29°43' W 095°14'0 0.0
2017-Dec-03 15:00N 29°43' W 095°14'0 0.0
2017-Dec-03 14:30N 29°43' W 095°14'0 0.0
2017-Dec-03 13:56N 29°43' W 095°14'0 0.0
2017-Dec-03 13:30N 29°43' W 095°14'0 0.0
2017-Dec-03 12:59N 29°43' W 095°14'0 0.0
2017-Dec-03 12:30N 29°43' W 095°14'0 0.0
2017-Dec-03 12:00N 29°43' W 095°14'0 0.0
2017-Dec-03 11:30N 29°43' W 095°14'0 0.0
2017-Dec-03 10:58N 29°43' W 095°14'0 0.0
2017-Dec-03 10:30N 29°43' W 095°14'0 0.0
2017-Dec-03 09:59N 29°43' W 095°14'0 0.0
2017-Dec-03 09:30N 29°43' W 095°14'0 0.0
2017-Dec-03 08:59N 29°43' W 095°14'0 0.0
2017-Dec-03 08:29N 29°43' W 095°14'0 0.0
2017-Dec-03 07:59N 29°43' W 095°14'0 0.0
2017-Dec-03 07:27N 29°43' W 095°14'0 0.0
2017-Dec-03 07:00N 29°43' W 095°14'0 0.0
2017-Dec-03 06:30N 29°43' W 095°14'0 0.0
2017-Dec-03 06:00N 29°43' W 095°14'0 0.0
2017-Dec-03 05:30N 29°43' W 095°14'0 0.0
2017-Dec-03 05:00N 29°43' W 095°14'0 0.0
2017-Dec-03 04:30N 29°43' W 095°14'0 0.0
2017-Dec-03 04:00N 29°43' W 095°14'0 0.1
2017-Dec-03 03:29N 29°43' W 095°14'0 0.2
2017-Dec-03 03:00N 29°43' W 095°14'2 4.0
2017-Dec-03 02:29N 29°44' W 095°12'3 5.9
2017-Dec-03 02:00N 29°44' W 095°09'4 7.6
2017-Dec-03 01:28N 29°46' W 095°05'4 7.7
2017-Dec-03 00:55N 29°43' W 095°01'4 8.7
2017-Dec-03 00:30N 29°40' W 094°59'4 8.8
2017-Dec-03 00:00N 29°36' W 094°57'510.0
2017-Dec-02 23:30N 29°32' W 094°54'11 6.8
2017-Dec-02 21:55N 29°24' W 094°45'63 3.1
2017-Dec-02 01:39N 30°01' W 093°46'1 5.0
2017-Dec-02 01:21N 30°01' W 093°44'2 4.9
2017-Dec-02 01:00N 30°03' W 093°43'3 5.5
2017-Dec-02 00:30N 30°04' W 093°40'2 4.7
2017-Dec-02 00:00N 30°04' W 093°38'2 4.7
2017-Dec-01 23:30N 30°04' W 093°35'2 4.6
2017-Dec-01 23:00N 30°04' W 093°32'2 4.7
2017-Dec-01 22:30N 30°04' W 093°30'2 4.3
2017-Dec-01 22:00N 30°04' W 093°27'2 4.8
2017-Dec-01 21:30N 30°04' W 093°24'1 2.8
2017-Dec-01 21:00N 30°04' W 093°23'2 4.1
2017-Dec-01 20:30N 30°04' W 093°21'2 3.8
2017-Dec-01 20:00N 30°06' W 093°20'3 5.3
2017-Dec-01 19:30N 30°09' W 093°20'3 5.1
2017-Dec-01 19:00N 30°11' W 093°19'3 6.3
2017-Dec-01 18:30N 30°13' W 093°16'1 1.5
2017-Dec-01 18:00N 30°13' W 093°16'0 0.0
2017-Dec-01 17:30N 30°13' W 093°16'0 0.0
2017-Dec-01 17:00N 30°13' W 093°16'0 0.0
2017-Dec-01 16:30N 30°13' W 093°16'0 0.0
2017-Dec-01 16:00N 30°13' W 093°16'0 0.0
2017-Dec-01 15:30N 30°13' W 093°16'0 0.0
2017-Dec-01 15:00N 30°13' W 093°16'0 0.0
2017-Dec-01 14:30N 30°13' W 093°16'0 0.0
2017-Dec-01 14:00N 30°13' W 093°16'0 0.0
2017-Dec-01 13:30N 30°13' W 093°16'0 0.0
2017-Dec-01 13:00N 30°13' W 093°16'0 0.0
2017-Dec-01 12:30N 30°13' W 093°16'0 0.0
2017-Dec-01 12:00N 30°13' W 093°16'0 0.0
2017-Dec-01 11:30N 30°13' W 093°16'0 0.0
2017-Dec-01 11:00N 30°13' W 093°16'0 0.0
2017-Dec-01 10:30N 30°13' W 093°16'0 0.0
2017-Dec-01 10:00N 30°13' W 093°16'0 0.0
2017-Dec-01 09:30N 30°13' W 093°16'0 0.0
2017-Dec-01 09:00N 30°13' W 093°16'0 0.0
2017-Dec-01 08:30N 30°13' W 093°16'0 0.0
2017-Dec-01 08:00N 30°13' W 093°16'0 0.0
2017-Dec-01 07:30N 30°13' W 093°16'0 0.0
2017-Dec-01 07:00N 30°13' W 093°16'0 0.0
2017-Dec-01 06:30N 30°13' W 093°16'0 0.0
2017-Dec-01 06:00N 30°13' W 093°16'0 0.0
2017-Dec-01 05:30N 30°13' W 093°16'0 0.0
2017-Dec-01 05:00N 30°13' W 093°16'0 0.0
2017-Dec-01 04:30N 30°13' W 093°16'0 0.0
2017-Dec-01 04:00N 30°13' W 093°16'0 0.0
2017-Dec-01 03:30N 30°13' W 093°16'0 0.0
2017-Dec-01 03:00N 30°13' W 093°16'0 0.0
2017-Dec-01 02:30N 30°13' W 093°16'0 0.0
2017-Dec-01 02:00N 30°13' W 093°16'0 0.0
2017-Dec-01 01:30N 30°13' W 093°16'0 0.0
2017-Dec-01 01:00N 30°13' W 093°16'0 0.0
2017-Dec-01 00:30N 30°13' W 093°16'0 0.0
2017-Dec-01 00:00N 30°13' W 093°16'0 0.0
2017-Nov-30 23:30N 30°13' W 093°16'0 0.0
2017-Nov-30 23:00N 30°13' W 093°16'0 0.0
2017-Nov-30 22:30N 30°13' W 093°16'0 0.0
2017-Nov-30 22:00N 30°13' W 093°16'0 0.0
2017-Nov-30 21:30N 30°13' W 093°16'0 0.0
2017-Nov-30 21:00N 30°13' W 093°16'0 0.0
2017-Nov-30 20:30N 30°13' W 093°16'0 0.0
2017-Nov-30 20:00N 30°13' W 093°16'0 0.0
2017-Nov-30 19:30N 30°13' W 093°16'0 0.0
2017-Nov-30 19:00N 30°13' W 093°16'0 0.0
2017-Nov-30 18:30N 30°13' W 093°16'0 0.0
2017-Nov-30 18:00N 30°13' W 093°16'0 0.0
2017-Nov-30 17:30N 30°13' W 093°16'0 0.0
2017-Nov-30 17:00N 30°13' W 093°16'0 0.0
2017-Nov-30 16:30N 30°13' W 093°16'0 0.0
2017-Nov-30 16:00N 30°13' W 093°16'0 0.0
2017-Nov-30 15:30N 30°13' W 093°16'0 0.0
2017-Nov-30 15:00N 30°13' W 093°16'0 0.0
2017-Nov-30 14:30N 30°13' W 093°16'0 0.0
2017-Nov-30 14:00N 30°13' W 093°16'0 0.0
2017-Nov-30 13:30N 30°13' W 093°16'0 0.0
2017-Nov-30 13:00N 30°13' W 093°16'0 0.0
2017-Nov-30 12:30N 30°13' W 093°16'0 0.0
2017-Nov-30 12:00N 30°13' W 093°16'0 0.0
2017-Nov-30 11:30N 30°13' W 093°16'0 0.0
2017-Nov-30 11:00N 30°13' W 093°16'0 0.0
2017-Nov-30 10:30N 30°13' W 093°16'0 0.0
2017-Nov-30 10:00N 30°13' W 093°16'0 0.0
2017-Nov-30 09:30N 30°13' W 093°16'0 0.0
2017-Nov-30 09:00N 30°13' W 093°16'0 0.0
2017-Nov-30 08:30N 30°13' W 093°16'0 0.0
2017-Nov-30 08:00N 30°13' W 093°16'0 0.0
2017-Nov-30 07:30N 30°13' W 093°16'0 0.0
2017-Nov-30 07:00N 30°13' W 093°16'0 0.0
2017-Nov-30 06:30N 30°13' W 093°16'0 0.0
2017-Nov-30 06:00N 30°13' W 093°16'0 0.0
2017-Nov-30 05:30N 30°13' W 093°16'0 0.0
2017-Nov-30 05:00N 30°13' W 093°16'0 0.0
2017-Nov-30 04:30N 30°13' W 093°16'0 0.0
2017-Nov-30 04:00N 30°13' W 093°16'0 0.0
2017-Nov-30 03:30N 30°13' W 093°16'0 0.0
2017-Nov-30 03:00N 30°13' W 093°16'0 0.0
2017-Nov-30 02:30N 30°13' W 093°16'0 0.0
2017-Nov-30 02:00N 30°13' W 093°16'0 0.0
2017-Nov-30 01:30N 30°13' W 093°16'0 0.0
2017-Nov-30 01:00N 30°13' W 093°16'0 0.0
2017-Nov-30 00:30N 30°13' W 093°16'0 0.0
2017-Nov-30 00:00N 30°13' W 093°16'0 0.0
2017-Nov-29 23:30N 30°13' W 093°16'0 0.0
2017-Nov-29 23:00N 30°13' W 093°16'0 0.0
2017-Nov-29 22:30N 30°13' W 093°16'0 0.0
2017-Nov-29 22:00N 30°13' W 093°16'  

Dump ship's entire track history